KELK/ELK METAR and TAF weather

Enter ICAO airport designator
Station Type Date Time Source
KELK METAR 2019/02/23 23:15 UTC NOAA

KELK 232315Z AUTO 31023G30KT 10SM OVC030 05/M01 A2990 RMK AO2 T00501015


Station Type Date Time Source
KELK Decoded METAR 2019/02/23 23:15 UTC NOAA

Station name not available
Feb 23, 2019 - 06:15 PM EST / 2019.02.23 2315 UTC
Wind: from the NW (310 degrees) at 26 MPH (23 KT) gusting to 35 MPH (30 KT):0
Visibility: 10 mile(s):0
Sky conditions: overcast
Temperature: 41.0 F (5.0 C)
Dew Point: 29.3 F (-1.5 C)
Relative Humidity: 62%
Pressure (altimeter): 29.9 in. Hg (1012 hPa)
ob: KELK 232315Z AUTO 31023G30KT 10SM OVC030 05/M01 A2990 RMK AO2 T00501015
cycle: 23

Station Type Date Time Source
KELK TAF UTC NOAA

Error!


Example: see airport list